createdAt,value
2022-09-18T00:01:30.382Z,76.20
2022-09-18T00:04:16.152Z,76.36
2022-09-18T00:07:05.338Z,76.18
2022-09-18T00:09:47.769Z,76.27
2022-09-18T00:12:36.438Z,75.44
2022-09-18T00:15:18.783Z,76.42
2022-09-18T00:18:07.383Z,76.28
2022-09-18T00:20:57.349Z,75.76
2022-09-18T00:23:47.353Z,76.38
2022-09-18T00:26:37.519Z,76.28
2022-09-18T00:29:19.871Z,75.95
2022-09-18T00:32:08.463Z,76.22
2022-09-18T00:34:50.650Z,75.61
2022-09-18T00:37:40.090Z,76.61
2022-09-18T00:40:22.686Z,76.35
2022-09-18T00:43:11.548Z,76.17
2022-09-18T00:46:02.564Z,76.57
2022-09-18T00:49:11.342Z,76.50
2022-09-18T00:51:56.784Z,76.50
2022-09-18T00:54:52.437Z,76.76
2022-09-18T00:57:43.390Z,76.42
2022-09-18T01:00:32.388Z,76.13
2022-09-18T01:03:14.612Z,76.58
2022-09-18T01:06:06.330Z,76.12
2022-09-18T01:09:09.779Z,76.98
2022-09-18T01:12:12.482Z,76.61
2022-09-18T01:15:14.196Z,76.17
2022-09-18T01:18:23.414Z,76.23
2022-09-18T01:21:26.402Z,76.26
2022-09-18T01:24:42.370Z,76.25
2022-09-18T01:28:00.443Z,75.87
2022-09-18T01:30:52.867Z,76.00
2022-09-18T01:33:53.398Z,75.84
2022-09-18T01:36:47.368Z,73.67
2022-09-18T01:40:02.512Z,74.91
2022-09-18T01:42:47.728Z,73.30
2022-09-18T01:45:43.334Z,74.01
2022-09-18T01:48:51.569Z,74.29
2022-09-18T01:51:53.448Z,73.93
2022-09-18T01:54:48.349Z,73.54
2022-09-18T01:57:57.354Z,72.28
2022-09-18T02:00:47.443Z,71.26
2022-09-18T02:03:38.647Z,71.16
2022-09-18T02:06:41.403Z,72.76
2022-09-18T02:09:23.748Z,71.85
2022-09-18T02:12:16.456Z,71.99
2022-09-18T02:15:17.344Z,72.38
2022-09-18T02:18:16.478Z,72.18
2022-09-18T02:21:13.298Z,71.41
2022-09-18T02:24:15.359Z,70.90
2022-09-18T02:27:01.713Z,68.98
2022-09-18T02:29:53.324Z,70.00
2022-09-18T02:32:35.749Z,70.70
2022-09-18T02:35:24.656Z,71.03
2022-09-18T02:38:23.352Z,68.39
2022-09-18T02:41:25.435Z,68.38
2022-09-18T02:44:20.359Z,70.26
2022-09-18T02:47:37.452Z,67.82
2022-09-18T02:51:05.502Z,68.23
2022-09-18T02:54:14.524Z,68.29
2022-09-18T02:56:56.747Z,67.89
2022-09-18T02:59:49.398Z,67.77
2022-09-18T03:02:33.806Z,67.39
2022-09-18T03:05:24.293Z,67.33
2022-09-18T03:08:15.435Z,68.50
2022-09-18T03:10:58.890Z,65.32
2022-09-18T03:13:47.280Z,64.72
2022-09-18T03:16:36.498Z,64.88
2022-09-18T03:19:26.823Z,65.21
2022-09-18T03:22:23.629Z,65.88
2022-09-18T03:25:06.179Z,67.74
2022-09-18T03:27:57.524Z,65.21
2022-09-18T03:30:46.829Z,64.92
2022-09-18T03:33:36.379Z,66.06
2022-09-18T03:36:26.801Z,65.53
2022-09-18T03:39:10.375Z,67.00
2022-09-18T03:42:01.410Z,64.30
2022-09-18T03:44:44.779Z,65.04
2022-09-18T03:47:41.434Z,64.69
2022-09-18T03:50:23.744Z,65.57
2022-09-18T03:53:12.377Z,65.69
2022-09-18T03:56:22.942Z,65.36
2022-09-18T03:59:44.477Z,65.42
2022-09-18T04:02:54.494Z,65.69
2022-09-18T04:05:41.219Z,64.85
2022-09-18T04:08:48.385Z,65.07
2022-09-18T04:11:36.782Z,64.13
2022-09-18T04:14:29.828Z,63.90
2022-09-18T04:17:12.800Z,63.24
2022-09-18T04:20:02.474Z,64.38
2022-09-18T04:22:57.385Z,63.23
2022-09-18T04:25:46.377Z,62.57
2022-09-18T04:28:40.461Z,61.65
2022-09-18T04:31:25.442Z,61.72
2022-09-18T04:34:19.498Z,60.77
2022-09-18T04:37:14.390Z,59.40
2022-09-18T04:40:00.968Z,60.83
2022-09-18T04:42:51.464Z,58.30
2022-09-18T04:45:43.482Z,59.22
2022-09-18T04:48:27.840Z,59.10
2022-09-18T04:51:18.461Z,59.23
2022-09-18T04:54:07.509Z,58.38
2022-09-18T04:56:49.615Z,57.68
2022-09-18T04:59:39.158Z,57.15
2022-09-18T05:02:21.952Z,54.03
2022-09-18T05:05:11.484Z,55.99
2022-09-18T05:07:53.635Z,55.00
2022-09-18T05:10:45.204Z,54.18
2022-09-18T05:13:29.005Z,53.13
2022-09-18T05:16:22.591Z,53.72
2022-09-18T05:19:35.267Z,52.13
2022-09-18T05:22:30.493Z,54.48
2022-09-18T05:25:37.183Z,51.19
2022-09-18T05:28:28.452Z,52.12
2022-09-18T05:31:12.841Z,52.04
2022-09-18T05:34:04.293Z,50.27
2022-09-18T05:36:49.834Z,53.03
2022-09-18T05:39:39.392Z,50.61
2022-09-18T05:42:21.827Z,51.45
2022-09-18T05:45:13.475Z,51.40
2022-09-18T05:48:07.851Z,54.14
2022-09-18T05:50:58.495Z,53.96
2022-09-18T05:53:43.665Z,55.48
2022-09-18T05:56:39.280Z,53.61
2022-09-18T05:59:29.400Z,51.09
2022-09-18T06:02:12.529Z,54.44
2022-09-18T06:05:19.493Z,53.78
2022-09-18T06:08:09.848Z,54.09
2022-09-18T06:10:52.382Z,53.99
2022-09-18T06:13:38.594Z,53.48
2022-09-18T06:16:31.436Z,52.36
2022-09-18T06:19:15.890Z,52.59
2022-09-18T06:22:05.210Z,54.49
2022-09-18T06:24:53.795Z,53.54
2022-09-18T06:27:43.293Z,52.92
2022-09-18T06:30:40.294Z,51.54
2022-09-18T06:33:26.864Z,50.38
2022-09-18T06:36:22.403Z,49.86
2022-09-18T06:39:25.717Z,50.56
2022-09-18T06:42:17.389Z,50.69
2022-09-18T06:45:37.114Z,49.79
2022-09-18T06:48:31.437Z,53.91
2022-09-18T06:51:16.835Z,54.15
2022-09-18T06:54:26.403Z,54.53
2022-09-18T06:57:16.505Z,54.50
2022-09-18T07:00:01.590Z,52.72
2022-09-18T07:02:54.465Z,54.21
2022-09-18T07:05:46.082Z,52.98
2022-09-18T07:08:59.401Z,50.91
2022-09-18T07:12:21.792Z,46.88
2022-09-18T07:15:05.396Z,49.03
2022-09-18T07:18:18.888Z,45.65
2022-09-18T07:21:01.771Z,45.88
2022-09-18T07:24:03.546Z,46.11
2022-09-18T07:26:53.816Z,46.56
2022-09-18T07:29:56.399Z,45.66
2022-09-18T07:32:44.818Z,42.49
2022-09-18T07:35:33.387Z,44.43
2022-09-18T07:38:17.328Z,45.72
2022-09-18T07:41:14.409Z,44.16
2022-09-18T07:44:05.959Z,40.78
2022-09-18T07:46:50.777Z,44.46
2022-09-18T07:49:44.654Z,42.70
2022-09-18T07:52:34.377Z,41.64
2022-09-18T07:55:25.372Z,45.30
2022-09-18T07:58:17.488Z,42.98
2022-09-18T08:01:14.745Z,43.65
2022-09-18T08:04:08.409Z,44.70
2022-09-18T08:07:13.889Z,42.23
2022-09-18T08:10:26.119Z,43.71
2022-09-18T08:13:21.811Z,46.31
2022-09-18T08:16:32.790Z,44.53
2022-09-18T08:19:48.492Z,44.49
2022-09-18T08:23:04.840Z,47.17
2022-09-18T08:25:59.339Z,44.08
2022-09-18T08:28:41.755Z,48.37
2022-09-18T08:31:30.541Z,47.43
2022-09-18T08:34:16.974Z,43.72
2022-09-18T08:37:05.480Z,45.91
2022-09-18T08:40:16.860Z,46.15
2022-09-18T08:43:26.393Z,46.27
2022-09-18T08:46:23.010Z,45.56
2022-09-18T08:49:31.302Z,46.21
2022-09-18T08:52:24.012Z,47.41
2022-09-18T08:55:46.391Z,49.40
2022-09-18T08:58:59.769Z,47.92
2022-09-18T09:02:12.201Z,48.51
2022-09-18T09:04:57.565Z,48.35
2022-09-18T09:08:11.678Z,47.54
2022-09-18T09:11:02.403Z,48.60
2022-09-18T09:14:17.826Z,48.75
2022-09-18T09:17:16.944Z,49.62
2022-09-18T09:20:36.095Z,51.06
2022-09-18T09:23:53.386Z,48.56
2022-09-18T09:27:12.602Z,49.39
2022-09-18T09:30:33.277Z,47.83
2022-09-18T09:33:41.659Z,48.38
2022-09-18T09:36:44.388Z,49.35
2022-09-18T09:39:33.903Z,48.74
2022-09-18T09:42:30.491Z,49.19
2022-09-18T09:45:52.470Z,48.64
2022-09-18T09:48:58.827Z,47.22
2022-09-18T09:52:09.153Z,45.89
2022-09-18T09:55:09.603Z,48.98
2022-09-18T09:58:11.363Z,46.26
2022-09-18T10:01:23.344Z,45.41
2022-09-18T10:04:43.738Z,46.04
2022-09-18T10:08:08.399Z,46.59
2022-09-18T10:11:09.872Z,45.82
2022-09-18T10:14:21.391Z,47.24
2022-09-18T10:17:05.779Z,44.98
2022-09-18T10:19:56.293Z,46.38
2022-09-18T10:22:49.495Z,45.43
2022-09-18T10:25:53.862Z,45.23
2022-09-18T10:28:44.481Z,48.54
2022-09-18T10:31:52.216Z,47.25
2022-09-18T10:35:02.398Z,46.45
2022-09-18T10:37:44.714Z,46.22
2022-09-18T10:41:00.290Z,46.28
2022-09-18T10:44:03.547Z,47.74
2022-09-18T10:47:01.264Z,45.49
2022-09-18T10:50:14.385Z,45.18
2022-09-18T10:53:22.503Z,45.46
2022-09-18T10:56:29.383Z,46.75
2022-09-18T10:59:38.572Z,46.64
2022-09-18T11:02:34.314Z,46.60
2022-09-18T11:05:25.417Z,47.03
2022-09-18T11:08:22.300Z,47.44
2022-09-18T11:11:13.359Z,48.65
2022-09-18T11:14:19.519Z,48.36
2022-09-18T11:17:27.238Z,48.40
2022-09-18T11:20:21.283Z,49.71
2022-09-18T11:23:31.881Z,49.89
2022-09-18T11:26:45.529Z,49.69
2022-09-18T11:29:50.469Z,50.02
2022-09-18T11:32:43.463Z,50.67
2022-09-18T11:35:28.723Z,51.00
2022-09-18T11:38:21.173Z,50.93
2022-09-18T11:41:12.464Z,51.83
2022-09-18T11:44:03.491Z,51.38
2022-09-18T11:47:34.475Z,51.41
2022-09-18T11:50:27.512Z,52.44
2022-09-18T11:53:34.482Z,51.89
2022-09-18T11:56:40.407Z,52.27
2022-09-18T11:59:37.326Z,53.15
2022-09-18T12:02:36.424Z,53.75
2022-09-18T12:05:44.812Z,54.53
2022-09-18T12:08:52.911Z,53.70
2022-09-18T12:12:22.528Z,54.70
2022-09-18T12:15:32.582Z,54.85
2022-09-18T12:18:33.126Z,54.80
2022-09-18T12:21:26.437Z,55.54
2022-09-18T12:24:15.387Z,55.43
2022-09-18T12:27:13.529Z,55.64
2022-09-18T12:30:28.111Z,55.79
2022-09-18T12:33:34.108Z,56.00
2022-09-18T12:36:41.031Z,56.16
2022-09-18T12:39:56.445Z,55.96
2022-09-18T12:43:18.220Z,56.69
2022-09-18T12:46:33.830Z,57.02
2022-09-18T12:49:20.780Z,56.83
2022-09-18T12:53:00.593Z,56.44
2022-09-18T12:56:41.674Z,56.56
2022-09-18T12:59:51.566Z,57.11
2022-09-18T13:03:11.310Z,56.95
2022-09-18T13:06:12.644Z,56.92
2022-09-18T13:09:26.080Z,56.74
2022-09-18T13:12:27.387Z,57.08
2022-09-18T13:15:42.155Z,57.87
2022-09-18T13:18:52.790Z,57.63
2022-09-18T13:22:01.555Z,59.00
2022-09-18T13:24:46.371Z,59.51
2022-09-18T13:27:37.901Z,58.75
2022-09-18T13:30:38.736Z,58.86
2022-09-18T13:33:35.449Z,59.71
2022-09-18T13:36:38.979Z,60.21
2022-09-18T13:39:46.070Z,60.88
2022-09-18T13:42:52.243Z,60.17
2022-09-18T13:45:52.337Z,60.91
2022-09-18T13:49:01.311Z,60.63
2022-09-18T13:51:48.848Z,60.76
2022-09-18T13:54:37.457Z,60.45
2022-09-18T13:57:35.467Z,60.48
2022-09-18T14:00:29.398Z,60.28
2022-09-18T14:03:28.477Z,61.24
2022-09-18T14:06:39.941Z,61.01
2022-09-18T14:10:09.337Z,60.86
2022-09-18T14:13:44.356Z,60.60
2022-09-18T14:16:30.218Z,61.04
2022-09-18T14:19:43.458Z,60.80
2022-09-18T14:22:39.324Z,60.18
2022-09-18T14:25:56.376Z,60.93
2022-09-18T14:29:04.047Z,60.89
2022-09-18T14:32:12.886Z,61.32
2022-09-18T14:35:41.226Z,59.76
2022-09-18T14:38:34.074Z,59.75
2022-09-18T14:41:29.510Z,59.54
2022-09-18T14:44:21.946Z,59.55
2022-09-18T14:47:17.395Z,61.42
2022-09-18T14:50:09.361Z,59.57
2022-09-18T14:52:59.483Z,60.27
2022-09-18T14:55:49.884Z,60.28
2022-09-18T14:58:50.072Z,61.29
2022-09-18T15:01:39.350Z,62.14
2022-09-18T15:04:34.565Z,62.67
2022-09-18T15:07:29.775Z,62.88
2022-09-18T15:10:18.276Z,63.27
2022-09-18T15:13:02.952Z,63.42
2022-09-18T15:16:04.068Z,63.91
2022-09-18T15:18:54.554Z,64.10
2022-09-18T15:21:44.273Z,64.23
2022-09-18T15:24:27.687Z,64.30
2022-09-18T15:27:22.379Z,64.66
2022-09-18T15:30:21.541Z,65.09
2022-09-18T15:33:21.083Z,65.63
2022-09-18T15:36:12.396Z,64.81
2022-09-18T15:38:57.803Z,65.12
2022-09-18T15:41:53.478Z,65.42
2022-09-18T15:44:50.417Z,65.39
2022-09-18T15:47:45.458Z,65.27
2022-09-18T15:50:31.184Z,65.63
2022-09-18T15:53:29.512Z,65.57
2022-09-18T15:56:18.501Z,65.91
2022-09-18T15:59:11.509Z,66.16
2022-09-18T16:01:58.326Z,66.08
2022-09-18T16:04:49.395Z,66.27
2022-09-18T16:07:34.937Z,65.71
2022-09-18T16:10:50.415Z,66.61
2022-09-18T16:13:40.498Z,66.16
2022-09-18T16:16:33.513Z,67.41
2022-09-18T16:19:30.310Z,67.13
2022-09-18T16:22:18.866Z,67.33
2022-09-18T16:25:10.221Z,67.43
2022-09-18T16:27:58.631Z,66.49
2022-09-18T16:30:47.851Z,67.53
2022-09-18T16:33:48.509Z,67.54
2022-09-18T16:36:47.447Z,66.50
2022-09-18T16:39:32.843Z,66.71
2022-09-18T16:42:26.352Z,66.77
2022-09-18T16:45:08.829Z,66.46
2022-09-18T16:48:00.829Z,66.93
2022-09-18T16:50:42.981Z,66.87
2022-09-18T16:53:34.819Z,66.70
2022-09-18T16:56:20.812Z,66.07
2022-09-18T16:59:11.372Z,66.81
2022-09-18T17:02:05.131Z,66.90
2022-09-18T17:04:56.202Z,67.22
2022-09-18T17:07:39.381Z,66.14
2022-09-18T17:10:21.894Z,67.59
2022-09-18T17:13:12.987Z,66.64
2022-09-18T17:16:03.711Z,66.96
2022-09-18T17:18:51.363Z,67.50
2022-09-18T17:21:40.138Z,67.57
2022-09-18T17:24:23.405Z,68.02
2022-09-18T17:27:12.716Z,67.76
2022-09-18T17:29:57.823Z,67.42
2022-09-18T17:32:40.211Z,66.97
2022-09-18T17:35:32.494Z,67.02
2022-09-18T17:38:17.129Z,66.65
2022-09-18T17:41:16.925Z,66.85
2022-09-18T17:44:05.819Z,66.85
2022-09-18T17:46:52.930Z,67.28
2022-09-18T17:49:35.243Z,67.38
2022-09-18T17:52:24.439Z,67.50
2022-09-18T17:55:07.305Z,67.18
2022-09-18T17:58:00.365Z,67.89
2022-09-18T18:00:45.599Z,66.76
2022-09-18T18:03:34.432Z,67.40
2022-09-18T18:06:24.935Z,66.85
2022-09-18T18:09:07.368Z,66.17
2022-09-18T18:11:51.286Z,66.66
2022-09-18T18:14:40.394Z,67.29
2022-09-18T18:17:29.443Z,66.78
2022-09-18T18:20:12.926Z,66.71
2022-09-18T18:23:01.424Z,67.23
2022-09-18T18:25:43.909Z,67.88
2022-09-18T18:28:33.415Z,67.12
2022-09-18T18:31:20.894Z,67.87
2022-09-18T18:34:18.379Z,68.59
2022-09-18T18:37:07.087Z,67.82
2022-09-18T18:39:50.432Z,68.25
2022-09-18T18:42:39.886Z,68.17
2022-09-18T18:45:22.357Z,67.76
2022-09-18T18:48:07.288Z,68.06
2022-09-18T18:50:58.929Z,68.08
2022-09-18T18:53:49.315Z,67.89
2022-09-18T18:56:38.422Z,68.35
2022-09-18T18:59:30.343Z,68.50
2022-09-18T19:02:12.889Z,68.53
2022-09-18T19:04:55.093Z,68.07
2022-09-18T19:07:44.391Z,68.55
2022-09-18T19:10:27.206Z,68.70
2022-09-18T19:13:17.285Z,68.63
2022-09-18T19:16:01.495Z,67.85
2022-09-18T19:18:50.257Z,67.41
2022-09-18T19:21:33.888Z,67.32
2022-09-18T19:24:23.522Z,66.53
2022-09-18T19:27:05.751Z,64.82
2022-09-18T19:29:57.304Z,65.85
2022-09-18T19:32:48.036Z,66.48
2022-09-18T19:35:44.976Z,66.30
2022-09-18T19:38:33.305Z,66.10
2022-09-18T19:41:56.929Z,66.50
2022-09-18T19:44:54.387Z,65.49
2022-09-18T19:47:49.433Z,66.12
2022-09-18T19:50:35.070Z,66.57
2022-09-18T19:53:24.480Z,65.36
2022-09-18T19:56:27.537Z,66.00
2022-09-18T19:59:21.339Z,65.78
2022-09-18T20:02:12.333Z,65.47
2022-09-18T20:04:55.440Z,66.70
2022-09-18T20:07:41.831Z,65.68
2022-09-18T20:10:25.397Z,65.05
2022-09-18T20:13:08.043Z,67.00
2022-09-18T20:16:11.405Z,65.78
2022-09-18T20:18:55.762Z,65.86
2022-09-18T20:21:44.290Z,65.94
2022-09-18T20:24:27.781Z,66.31
2022-09-18T20:27:16.409Z,65.95
2022-09-18T20:30:05.266Z,66.82
2022-09-18T20:32:47.656Z,66.81
2022-09-18T20:35:36.266Z,66.70
2022-09-18T20:38:32.364Z,66.91
2022-09-18T20:41:23.264Z,67.06
2022-09-18T20:44:14.281Z,66.25
2022-09-18T20:47:02.770Z,66.71
2022-09-18T20:49:47.355Z,67.25
2022-09-18T20:52:36.268Z,67.53
2022-09-18T20:55:28.343Z,66.87
2022-09-18T20:58:10.815Z,66.53
2022-09-18T21:01:01.321Z,67.38
2022-09-18T21:03:52.709Z,67.58
2022-09-18T21:06:40.267Z,67.17
2022-09-18T21:09:23.031Z,67.46
2022-09-18T21:12:12.264Z,67.56
2022-09-18T21:15:03.286Z,67.45
2022-09-18T21:17:46.361Z,67.39
2022-09-18T21:20:35.273Z,66.93
2022-09-18T21:23:44.282Z,67.12
2022-09-18T21:26:34.440Z,67.01
2022-09-18T21:29:27.708Z,66.94
2022-09-18T21:32:16.288Z,67.59
2022-09-18T21:35:04.259Z,68.08
2022-09-18T21:37:53.376Z,68.03
2022-09-18T21:40:48.219Z,67.67
2022-09-18T21:43:50.622Z,68.29
2022-09-18T21:46:32.591Z,68.20
2022-09-18T21:49:23.289Z,67.95
2022-09-18T21:52:08.959Z,67.54
2022-09-18T21:54:57.278Z,67.81
2022-09-18T21:57:39.607Z,67.97
2022-09-18T22:00:28.310Z,68.51
2022-09-18T22:03:10.811Z,68.36
2022-09-18T22:06:00.358Z,68.49
2022-09-18T22:08:42.704Z,67.61
2022-09-18T22:11:36.285Z,68.31
2022-09-18T22:14:34.367Z,68.09
2022-09-18T22:17:17.526Z,68.20
2022-09-18T22:20:06.371Z,68.06
2022-09-18T22:22:48.679Z,68.46
2022-09-18T22:25:30.380Z,68.47
2022-09-18T22:28:12.670Z,68.85
2022-09-18T22:31:02.321Z,69.05
2022-09-18T22:33:46.310Z,69.68
2022-09-18T22:36:36.297Z,70.40
2022-09-18T22:39:19.969Z,70.66
2022-09-18T22:42:08.394Z,70.29
2022-09-18T22:44:57.378Z,70.09
2022-09-18T22:47:39.739Z,70.49
2022-09-18T22:50:30.443Z,70.57
2022-09-18T22:53:13.108Z,70.91
2022-09-18T22:56:08.374Z,71.14
2022-09-18T22:58:58.381Z,70.37
2022-09-18T23:01:47.320Z,71.16
2022-09-18T23:04:38.326Z,71.56
2022-09-18T23:07:20.652Z,71.41
2022-09-18T23:10:09.375Z,71.57
2022-09-18T23:12:58.335Z,71.66
2022-09-18T23:15:50.358Z,71.46
2022-09-18T23:18:39.257Z,71.37
2022-09-18T23:21:22.305Z,72.04
2022-09-18T23:24:13.381Z,71.43
2022-09-18T23:26:58.319Z,71.79
2022-09-18T23:29:48.290Z,72.19
2022-09-18T23:32:30.666Z,72.24
2022-09-18T23:35:19.394Z,72.42
2022-09-18T23:38:03.726Z,72.62
2022-09-18T23:40:52.310Z,72.13
2022-09-18T23:43:48.224Z,72.65
2022-09-18T23:46:38.366Z,72.61
2022-09-18T23:49:24.747Z,72.64
2022-09-18T23:52:13.285Z,72.92
2022-09-18T23:55:02.406Z,72.88
2022-09-18T23:57:44.593Z,73.06
